createdAt,value
2018-09-26T00:00:38.650Z,4.42
2018-09-26T00:03:24.345Z,5.35
2018-09-26T00:05:51.692Z,4.97
2018-09-26T00:08:18.998Z,5.92
2018-09-26T00:10:46.696Z,6.83
2018-09-26T00:13:14.177Z,8.63
2018-09-26T00:15:41.452Z,9.38
2018-09-26T00:18:08.756Z,11.83
2018-09-26T00:20:36.057Z,9.63
2018-09-26T00:23:03.409Z,6.95
2018-09-26T00:25:30.723Z,7.30
2018-09-26T00:27:58.069Z,7.47
2018-09-26T00:30:25.368Z,7.70
2018-09-26T00:32:52.680Z,4.17
2018-09-26T00:35:20.015Z,9.93
2018-09-26T00:37:47.373Z,4.10
2018-09-26T00:40:14.679Z,6.28
2018-09-26T00:42:41.985Z,7.45
2018-09-26T00:45:09.305Z,7.35
2018-09-26T00:47:36.614Z,5.85
2018-09-26T00:50:03.933Z,5.40
2018-09-26T00:52:31.220Z,4.55
2018-09-26T00:54:58.517Z,5.33
2018-09-26T00:57:25.827Z,6.10
2018-09-26T00:59:53.128Z,4.15
2018-09-26T01:02:20.475Z,5.97
2018-09-26T01:04:47.864Z,6.33
2018-09-26T01:07:15.184Z,3.70
2018-09-26T01:09:42.493Z,5.22
2018-09-26T01:12:09.801Z,4.50
2018-09-26T01:14:37.137Z,4.47
2018-09-26T01:17:04.420Z,5.50
2018-09-26T01:19:31.724Z,6.42
2018-09-26T01:21:59.036Z,5.37
2018-09-26T01:24:26.313Z,5.78
2018-09-26T01:26:53.633Z,3.98
2018-09-26T01:29:20.962Z,6.95
2018-09-26T01:31:48.281Z,5.78
2018-09-26T01:34:15.593Z,4.50
2018-09-26T01:36:42.932Z,5.37
2018-09-26T01:39:10.627Z,4.40
2018-09-26T01:41:37.998Z,4.50
2018-09-26T01:44:05.328Z,3.95
2018-09-26T01:46:32.662Z,3.50
2018-09-26T01:48:59.961Z,4.62
2018-09-26T01:51:27.286Z,2.70
2018-09-26T01:53:54.587Z,4.50
2018-09-26T01:56:21.882Z,4.78
2018-09-26T01:58:49.173Z,8.08
2018-09-26T02:01:16.481Z,7.33
2018-09-26T02:03:43.744Z,4.85
2018-09-26T02:06:11.020Z,8.08
2018-09-26T02:08:38.314Z,5.12
2018-09-26T02:11:05.629Z,4.33
2018-09-26T02:13:32.954Z,4.33
2018-09-26T02:16:00.213Z,3.25
2018-09-26T02:18:27.485Z,4.65
2018-09-26T02:20:54.761Z,4.28
2018-09-26T02:23:22.061Z,8.40
2018-09-26T02:25:49.337Z,5.45
2018-09-26T02:28:16.618Z,6.90
2018-09-26T02:30:43.892Z,5.35
2018-09-26T02:33:11.304Z,4.78
2018-09-26T02:35:38.553Z,3.90
2018-09-26T02:38:05.860Z,5.53
2018-09-26T02:40:33.212Z,5.62
2018-09-26T02:43:00.477Z,8.83
2018-09-26T02:45:27.749Z,6.35
2018-09-26T02:47:55.028Z,3.83
2018-09-26T02:50:22.311Z,4.55
2018-09-26T02:52:49.577Z,3.85
2018-09-26T02:55:16.844Z,7.20
2018-09-26T02:57:44.098Z,5.92
2018-09-26T03:00:11.380Z,6.53
2018-09-26T03:02:38.677Z,5.33
2018-09-26T03:05:06.017Z,8.23
2018-09-26T03:07:33.296Z,7.12
2018-09-26T03:10:00.597Z,6.28
2018-09-26T03:12:27.845Z,6.72
2018-09-26T03:14:55.113Z,5.58
2018-09-26T03:17:22.512Z,5.12
2018-09-26T03:19:49.804Z,4.55
2018-09-26T03:22:17.085Z,5.50
2018-09-26T03:24:44.365Z,5.30
2018-09-26T03:27:11.600Z,5.35
2018-09-26T03:29:38.844Z,4.70
2018-09-26T03:32:06.107Z,9.28
2018-09-26T03:34:33.377Z,3.85
2018-09-26T03:37:00.629Z,4.75
2018-09-26T03:39:27.873Z,4.95
2018-09-26T03:41:55.143Z,4.78
2018-09-26T03:44:22.402Z,7.97
2018-09-26T03:46:49.672Z,4.00
2018-09-26T03:49:16.924Z,6.22
2018-09-26T03:51:44.206Z,6.05
2018-09-26T03:54:11.504Z,4.62
2018-09-26T03:56:38.874Z,4.03
2018-09-26T03:59:06.209Z,5.10
2018-09-26T04:01:33.479Z,4.75
2018-09-26T04:04:00.870Z,4.67
2018-09-26T04:06:28.198Z,4.65
2018-09-26T04:08:55.509Z,5.62
2018-09-26T04:11:22.806Z,4.45
2018-09-26T04:13:50.102Z,5.17
2018-09-26T04:16:17.410Z,3.92
2018-09-26T04:18:44.713Z,5.97
2018-09-26T04:21:12.061Z,5.20
2018-09-26T04:23:39.337Z,6.85
2018-09-26T04:26:06.643Z,6.53
2018-09-26T04:28:33.914Z,5.10
2018-09-26T04:31:01.209Z,5.28
2018-09-26T04:33:28.571Z,7.78
2018-09-26T04:35:55.804Z,5.30
2018-09-26T04:38:23.114Z,4.62
2018-09-26T04:40:50.493Z,6.10
2018-09-26T04:43:17.850Z,7.33
2018-09-26T04:45:45.121Z,6.85
2018-09-26T04:48:12.428Z,6.55
2018-09-26T04:50:39.777Z,4.87
2018-09-26T04:53:07.069Z,6.85
2018-09-26T04:55:34.365Z,6.70
2018-09-26T04:58:01.757Z,12.47
2018-09-26T05:00:28.965Z,12.82
2018-09-26T05:02:56.238Z,12.85
2018-09-26T05:05:23.480Z,8.55
2018-09-26T05:07:50.973Z,11.35
2018-09-26T05:10:18.231Z,11.05
2018-09-26T05:12:45.509Z,17.45
2018-09-26T05:15:12.783Z,12.07
2018-09-26T05:17:40.045Z,9.00
2018-09-26T05:20:07.339Z,7.42
2018-09-26T05:22:34.627Z,10.15
2018-09-26T05:25:01.915Z,9.55
2018-09-26T05:27:29.192Z,8.28
2018-09-26T05:29:56.481Z,8.35
2018-09-26T05:32:23.757Z,5.72
2018-09-26T05:34:51.012Z,12.18
2018-09-26T05:37:18.393Z,6.20
2018-09-26T05:39:46.510Z,9.43
2018-09-26T05:42:13.804Z,8.55
2018-09-26T05:44:41.078Z,6.50
2018-09-26T05:47:08.717Z,8.95
2018-09-26T05:49:35.988Z,7.53
2018-09-26T05:52:03.558Z,6.03
2018-09-26T05:54:30.849Z,4.95
2018-09-26T05:56:58.126Z,4.80
2018-09-26T05:59:25.563Z,8.40
2018-09-26T06:01:52.804Z,6.97
2018-09-26T06:04:20.113Z,3.87
2018-09-26T06:06:47.365Z,5.17
2018-09-26T06:09:14.613Z,5.72
2018-09-26T06:11:42.328Z,5.30
2018-09-26T06:14:10.505Z,6.12
2018-09-26T06:16:37.808Z,4.35
2018-09-26T06:19:05.532Z,7.28
2018-09-26T06:21:32.861Z,6.25
2018-09-26T06:24:00.149Z,9.03
2018-09-26T06:26:27.434Z,5.15
2018-09-26T06:28:54.714Z,6.75
2018-09-26T06:31:21.996Z,6.42
2018-09-26T06:33:49.251Z,5.10
2018-09-26T06:36:16.517Z,6.20
2018-09-26T06:38:43.794Z,8.48
2018-09-26T06:41:11.129Z,8.58
2018-09-26T06:43:38.433Z,7.92
2018-09-26T06:46:05.870Z,13.70
2018-09-26T06:48:33.199Z,6.92
2018-09-26T06:51:00.537Z,9.15
2018-09-26T06:53:27.808Z,7.35
2018-09-26T06:55:55.197Z,9.13
2018-09-26T06:58:22.465Z,8.43
2018-09-26T07:00:49.734Z,11.30
2018-09-26T07:03:17.017Z,7.90
2018-09-26T07:05:44.309Z,10.25
2018-09-26T07:08:11.620Z,7.60
2018-09-26T07:10:38.896Z,8.78
2018-09-26T07:13:06.158Z,14.55
2018-09-26T07:15:33.425Z,9.28
2018-09-26T07:18:00.696Z,9.45
2018-09-26T07:20:27.963Z,6.05
2018-09-26T07:22:55.245Z,9.03
2018-09-26T07:25:22.498Z,9.95
2018-09-26T07:27:49.768Z,9.30
2018-09-26T07:30:17.084Z,6.92
2018-09-26T07:32:44.359Z,9.30
2018-09-26T07:35:11.621Z,6.65
2018-09-26T07:37:38.910Z,8.58
2018-09-26T07:40:06.224Z,8.10
2018-09-26T07:42:33.540Z,9.20
2018-09-26T07:45:00.797Z,10.98
2018-09-26T07:47:28.057Z,13.28
2018-09-26T07:49:55.333Z,9.95
2018-09-26T07:52:22.602Z,16.73
2018-09-26T07:54:49.908Z,8.90
2018-09-26T07:57:17.201Z,6.20
2018-09-26T07:59:44.490Z,9.98
2018-09-26T08:02:11.757Z,10.00
2018-09-26T08:04:39.033Z,11.80
2018-09-26T08:07:06.373Z,8.75
2018-09-26T08:09:33.641Z,10.00
2018-09-26T08:12:00.913Z,7.97
2018-09-26T08:14:28.200Z,8.40
2018-09-26T08:16:55.477Z,8.23
2018-09-26T08:19:22.766Z,6.85
2018-09-26T08:21:50.030Z,7.92
2018-09-26T08:24:17.380Z,12.30
2018-09-26T08:26:44.596Z,10.40
2018-09-26T08:29:11.852Z,7.20
2018-09-26T08:31:39.145Z,9.33
2018-09-26T08:34:06.449Z,5.70
2018-09-26T08:36:33.734Z,7.40
2018-09-26T08:39:00.992Z,8.30
2018-09-26T08:41:28.284Z,9.00
2018-09-26T08:43:55.583Z,7.03
2018-09-26T08:46:22.844Z,12.63
2018-09-26T08:48:50.105Z,7.10
2018-09-26T08:51:17.409Z,6.10
2018-09-26T08:53:44.738Z,7.80
2018-09-26T08:56:12.002Z,7.03
2018-09-26T08:58:39.274Z,4.47
2018-09-26T09:01:11.209Z,12.27
2018-09-26T09:03:38.483Z,7.13
2018-09-26T09:06:05.794Z,6.27
2018-09-26T09:08:33.038Z,15.07
2018-09-26T09:11:00.322Z,6.17
2018-09-26T09:13:27.586Z,5.93
2018-09-26T09:15:54.845Z,4.30
2018-09-26T09:18:22.105Z,4.23
2018-09-26T09:20:49.391Z,8.77
2018-09-26T09:23:16.669Z,7.63
2018-09-26T09:25:43.962Z,6.50
2018-09-26T09:28:11.269Z,6.00
2018-09-26T09:30:38.558Z,5.97
2018-09-26T09:33:05.868Z,6.00
2018-09-26T09:35:33.138Z,9.80
2018-09-26T09:38:00.425Z,6.53
2018-09-26T09:40:27.693Z,6.13
2018-09-26T09:42:54.961Z,5.27
2018-09-26T09:45:22.221Z,4.10
2018-09-26T09:47:49.491Z,7.70
2018-09-26T09:50:16.765Z,8.77
2018-09-26T09:52:44.035Z,6.13
2018-09-26T09:55:11.283Z,3.97
2018-09-26T09:57:38.541Z,6.50
2018-09-26T10:00:05.856Z,5.50
2018-09-26T10:02:33.176Z,7.80
2018-09-26T10:05:00.465Z,10.60
2018-09-26T10:07:27.898Z,6.43
2018-09-26T10:09:55.178Z,10.13
2018-09-26T10:12:22.489Z,8.03
2018-09-26T10:14:49.780Z,7.30
2018-09-26T10:17:17.085Z,9.17
2018-09-26T10:19:44.388Z,5.10
2018-09-26T10:22:11.685Z,7.67
2018-09-26T10:24:38.994Z,8.17
2018-09-26T10:27:06.288Z,4.70
2018-09-26T10:29:33.570Z,5.80
2018-09-26T10:32:00.881Z,5.33
2018-09-26T10:34:28.164Z,4.70
2018-09-26T10:36:55.445Z,5.23
2018-09-26T10:39:22.716Z,6.27
2018-09-26T10:41:49.973Z,8.80
2018-09-26T10:44:17.267Z,5.40
2018-09-26T10:46:44.578Z,8.77
2018-09-26T10:49:11.854Z,4.30
2018-09-26T10:51:39.109Z,9.20
2018-09-26T10:54:06.449Z,5.10
2018-09-26T10:56:33.875Z,6.37
2018-09-26T10:59:00.990Z,4.50
2018-09-26T11:01:28.404Z,7.53
2018-09-26T11:03:55.724Z,6.07
2018-09-26T11:06:23.028Z,5.13
2018-09-26T11:08:50.332Z,4.90
2018-09-26T11:11:17.620Z,9.60
2018-09-26T11:13:44.919Z,11.60
2018-09-26T11:16:12.273Z,6.13
2018-09-26T11:18:39.537Z,5.37
2018-09-26T11:21:06.884Z,6.13
2018-09-26T11:23:34.170Z,6.20
2018-09-26T11:26:01.527Z,9.80
2018-09-26T11:28:28.826Z,5.23
2018-09-26T11:30:56.120Z,6.50
2018-09-26T11:33:23.463Z,6.47
2018-09-26T11:35:50.701Z,6.00
2018-09-26T11:38:18.030Z,6.40
2018-09-26T11:40:45.296Z,4.80
2018-09-26T11:43:12.590Z,4.80
2018-09-26T11:45:39.890Z,3.57
2018-09-26T11:48:07.176Z,6.63
2018-09-26T11:50:34.490Z,7.73
2018-09-26T11:53:01.785Z,5.10
2018-09-26T11:55:29.176Z,6.30
2018-09-26T11:57:56.461Z,3.20
2018-09-26T12:00:23.744Z,4.50
2018-09-26T12:02:51.018Z,5.83
2018-09-26T12:05:18.286Z,5.43
2018-09-26T12:07:45.558Z,8.53
2018-09-26T12:10:12.879Z,6.40
2018-09-26T12:12:40.129Z,4.90
2018-09-26T12:15:07.411Z,11.43
2018-09-26T12:17:34.689Z,4.73
2018-09-26T12:20:01.990Z,4.63
2018-09-26T12:22:29.569Z,6.43
2018-09-26T12:24:56.808Z,8.17
2018-09-26T12:27:24.117Z,5.13
2018-09-26T12:29:51.418Z,5.33
2018-09-26T12:32:18.733Z,4.50
2018-09-26T12:34:46.077Z,6.20
2018-09-26T12:37:13.338Z,7.50
2018-09-26T12:39:40.605Z,3.60
2018-09-26T12:42:07.930Z,10.67
2018-09-26T12:44:35.321Z,5.40
2018-09-26T12:47:02.581Z,395.53
2018-09-26T12:49:29.930Z,513.53
2018-09-26T12:51:57.190Z,109.87
2018-09-26T12:54:24.459Z,35.43
2018-09-26T12:56:51.729Z,5.97
2018-09-26T12:59:19.037Z,7.10
2018-09-26T13:01:46.288Z,4.00
2018-09-26T13:04:13.636Z,5.10
2018-09-26T13:06:40.901Z,9.07
2018-09-26T13:09:08.220Z,5.63
2018-09-26T13:11:35.519Z,5.23
2018-09-26T13:14:02.860Z,7.83
2018-09-26T13:16:30.166Z,4.93
2018-09-26T13:18:57.534Z,3.80
2018-09-26T13:21:24.781Z,3.03
2018-09-26T13:23:52.082Z,6.33
2018-09-26T13:26:19.448Z,8.33
2018-09-26T13:28:46.701Z,6.83
2018-09-26T13:31:13.996Z,6.80
2018-09-26T13:33:41.281Z,7.37
2018-09-26T13:36:08.621Z,3.60
2018-09-26T13:38:35.881Z,5.73
2018-09-26T13:41:03.214Z,6.03
2018-09-26T13:43:30.620Z,5.60
2018-09-26T13:45:58.061Z,2.93
2018-09-26T13:48:25.301Z,10.77
2018-09-26T13:50:52.566Z,4.43
2018-09-26T13:53:19.929Z,4.83
2018-09-26T13:55:47.258Z,6.20
2018-09-26T13:58:14.607Z,7.80
2018-09-26T14:00:41.885Z,6.77
2018-09-26T14:03:09.233Z,6.53
2018-09-26T14:05:36.521Z,5.07
2018-09-26T14:08:03.860Z,6.13
2018-09-26T14:10:31.157Z,4.77
2018-09-26T14:12:58.451Z,3.67
2018-09-26T14:15:25.745Z,4.87
2018-09-26T14:17:53.048Z,9.30
2018-09-26T14:20:37.629Z,3.33
2018-09-26T14:23:05.157Z,4.03
2018-09-26T14:25:32.453Z,6.77
2018-09-26T14:27:59.824Z,4.23
2018-09-26T14:30:27.254Z,6.90
2018-09-26T14:32:54.555Z,5.30
2018-09-26T14:35:21.955Z,6.83
2018-09-26T14:37:49.297Z,4.40
2018-09-26T14:40:16.704Z,4.50
2018-09-26T14:42:44.069Z,4.07
2018-09-26T14:45:11.481Z,3.70
2018-09-26T14:47:38.818Z,7.63
2018-09-26T14:50:06.906Z,3.47
2018-09-26T14:52:34.318Z,3.27
2018-09-26T14:55:01.673Z,4.77
2018-09-26T14:57:29.035Z,4.13
2018-09-26T14:59:56.413Z,2.93
2018-09-26T15:02:23.835Z,7.90
2018-09-26T15:04:51.204Z,4.00
2018-09-26T15:07:18.565Z,4.70
2018-09-26T15:09:45.937Z,6.07
2018-09-26T15:12:13.409Z,5.60
2018-09-26T15:14:40.745Z,4.43
2018-09-26T15:17:08.109Z,6.83
2018-09-26T15:19:35.509Z,5.17
2018-09-26T15:22:02.893Z,10.20
2018-09-26T15:24:30.256Z,19.77
2018-09-26T15:26:57.620Z,6.23
2018-09-26T15:29:25.002Z,9.53
2018-09-26T15:31:52.357Z,8.33
2018-09-26T15:34:19.825Z,4.30
2018-09-26T15:36:47.185Z,3.77
2018-09-26T15:39:14.556Z,5.03
2018-09-26T15:41:41.981Z,6.10
2018-09-26T15:44:09.381Z,5.70
2018-09-26T15:46:36.866Z,9.03
2018-09-26T15:49:04.374Z,13.03
2018-09-26T15:51:31.841Z,5.23
2018-09-26T15:53:59.242Z,5.23
2018-09-26T15:56:26.604Z,5.07
2018-09-26T15:58:54.036Z,6.17
2018-09-26T16:01:21.404Z,4.43
2018-09-26T16:04:05.992Z,3.17
2018-09-26T16:06:33.282Z,4.00
2018-09-26T16:09:00.557Z,3.10
2018-09-26T16:11:27.848Z,3.63
2018-09-26T16:13:55.178Z,5.10
2018-09-26T16:16:22.499Z,4.10
2018-09-26T16:18:49.766Z,4.80
2018-09-26T16:21:17.092Z,3.03
2018-09-26T16:23:44.381Z,7.33
2018-09-26T16:26:11.735Z,6.00
2018-09-26T16:28:38.973Z,6.87
2018-09-26T16:31:06.425Z,6.83
2018-09-26T16:33:33.757Z,8.53
2018-09-26T16:36:01.055Z,5.93
2018-09-26T16:38:28.316Z,4.67
2018-09-26T16:40:55.608Z,9.07
2018-09-26T16:43:22.910Z,4.23
2018-09-26T16:45:50.961Z,7.13
2018-09-26T16:48:18.267Z,4.33
2018-09-26T16:50:45.522Z,5.00
2018-09-26T16:53:12.797Z,3.93
2018-09-26T16:55:40.105Z,4.27
2018-09-26T16:58:07.436Z,3.63
2018-09-26T17:00:34.695Z,3.10
2018-09-26T17:03:02.174Z,6.50
2018-09-26T17:05:29.471Z,11.23
2018-09-26T17:07:56.761Z,7.33
2018-09-26T17:10:24.125Z,6.83
2018-09-26T17:12:51.357Z,6.27
2018-09-26T17:15:18.642Z,5.90
2018-09-26T17:17:45.945Z,3.90
2018-09-26T17:20:13.267Z,5.20
2018-09-26T17:22:40.536Z,5.07
2018-09-26T17:25:08.317Z,4.27
2018-09-26T17:27:35.715Z,7.63
2018-09-26T17:30:03.068Z,5.53
2018-09-26T17:32:30.377Z,11.20
2018-09-26T17:34:57.658Z,9.63
2018-09-26T17:37:24.953Z,15.13
2018-09-26T17:39:52.238Z,13.53
2018-09-26T17:42:19.602Z,20.57
2018-09-26T17:44:46.834Z,28.83
2018-09-26T17:47:14.490Z,29.43
2018-09-26T17:49:41.769Z,23.20
2018-09-26T17:52:09.116Z,25.53
2018-09-26T17:54:36.378Z,29.70
2018-09-26T17:57:03.681Z,34.40
2018-09-26T17:59:30.992Z,26.80
2018-09-26T18:01:58.293Z,30.03
2018-09-26T18:04:25.624Z,12.20
2018-09-26T18:06:52.837Z,13.60
2018-09-26T18:09:20.097Z,26.73
2018-09-26T18:11:47.357Z,15.77
2018-09-26T18:14:14.609Z,13.33
2018-09-26T18:16:41.866Z,14.30
2018-09-26T18:19:09.377Z,15.20
2018-09-26T18:21:37.157Z,12.43
2018-09-26T18:24:04.429Z,8.50
2018-09-26T18:26:31.798Z,13.03
2018-09-26T18:28:59.213Z,12.50
2018-09-26T18:31:26.466Z,10.10
2018-09-26T18:33:53.700Z,9.03
2018-09-26T18:36:20.964Z,36.07
2018-09-26T18:38:48.331Z,33.20
2018-09-26T18:41:15.517Z,16.40
2018-09-26T18:43:42.777Z,8.53
2018-09-26T18:46:10.049Z,15.00
2018-09-26T18:48:37.337Z,30.10
2018-09-26T18:51:05.046Z,29.60
2018-09-26T18:53:32.533Z,31.43
2018-09-26T18:55:59.890Z,28.33
2018-09-26T18:58:27.160Z,16.07
2018-09-26T19:00:54.413Z,16.87
2018-09-26T19:03:21.666Z,13.47
2018-09-26T19:05:49.105Z,15.30
2018-09-26T19:08:16.756Z,12.17
2018-09-26T19:10:44.022Z,12.43
2018-09-26T19:13:11.299Z,11.93
2018-09-26T19:15:38.560Z,9.80
2018-09-26T19:18:05.800Z,11.80
2018-09-26T19:20:33.073Z,16.80
2018-09-26T19:23:00.348Z,14.73
2018-09-26T19:25:27.609Z,12.97
2018-09-26T19:27:54.895Z,9.90
2018-09-26T19:30:22.389Z,11.37
2018-09-26T19:32:49.879Z,14.60
2018-09-26T19:35:17.165Z,12.90
2018-09-26T19:37:44.465Z,14.40
2018-09-26T19:40:11.937Z,12.23
2018-09-26T19:42:39.193Z,12.17
2018-09-26T19:45:06.511Z,13.80
2018-09-26T19:47:33.850Z,11.73
2018-09-26T19:50:01.144Z,10.43
2018-09-26T19:52:28.416Z,10.07
2018-09-26T19:54:55.741Z,12.10
2018-09-26T19:57:23.077Z,12.20
2018-09-26T19:59:50.366Z,15.77
2018-09-26T20:02:17.616Z,14.30
2018-09-26T20:04:44.906Z,13.87
2018-09-26T20:07:12.196Z,11.03
2018-09-26T20:09:39.474Z,16.67
2018-09-26T20:12:06.791Z,11.73
2018-09-26T20:14:34.082Z,12.63
2018-09-26T20:17:01.382Z,10.80
2018-09-26T20:19:28.710Z,11.67
2018-09-26T20:21:56.085Z,10.80
2018-09-26T20:24:23.362Z,13.13
2018-09-26T20:26:50.779Z,12.00
2018-09-26T20:29:18.023Z,14.00
2018-09-26T20:31:45.340Z,17.07
2018-09-26T20:34:12.593Z,10.00
2018-09-26T20:36:39.972Z,13.60
2018-09-26T20:39:08.370Z,18.03
2018-09-26T20:41:35.670Z,10.63
2018-09-26T20:44:03.120Z,9.60
2018-09-26T20:46:30.557Z,12.60
2018-09-26T20:48:57.920Z,11.43
2018-09-26T20:51:25.217Z,13.33
2018-09-26T20:53:52.545Z,16.57
2018-09-26T20:56:19.944Z,13.93
2018-09-26T20:58:47.281Z,10.40
2018-09-26T21:01:14.578Z,10.50
2018-09-26T21:03:41.845Z,14.47
2018-09-26T21:06:09.224Z,14.13
2018-09-26T21:08:36.521Z,16.77
2018-09-26T21:11:03.855Z,15.03
2018-09-26T21:13:31.138Z,12.90
2018-09-26T21:15:58.441Z,9.73
2018-09-26T21:18:25.781Z,10.70
2018-09-26T21:20:53.108Z,10.97
2018-09-26T21:23:20.394Z,5.93
2018-09-26T21:25:47.680Z,8.07
2018-09-26T21:28:14.971Z,15.63
2018-09-26T21:30:42.372Z,14.90
2018-09-26T21:33:09.938Z,15.10
2018-09-26T21:35:37.510Z,12.77
2018-09-26T21:38:04.793Z,9.57
2018-09-26T21:40:32.093Z,8.90
2018-09-26T21:42:59.391Z,9.10
2018-09-26T21:45:26.699Z,8.40
2018-09-26T21:47:53.987Z,8.87
2018-09-26T21:50:21.287Z,8.10
2018-09-26T21:52:48.781Z,13.10
2018-09-26T21:55:16.089Z,7.23
2018-09-26T21:57:43.398Z,6.80
2018-09-26T22:00:10.744Z,9.17
2018-09-26T22:02:38.033Z,8.80
2018-09-26T22:05:05.422Z,9.73
2018-09-26T22:07:32.737Z,10.30
2018-09-26T22:10:00.014Z,9.83
2018-09-26T22:12:27.344Z,8.40
2018-09-26T22:14:54.637Z,7.17
2018-09-26T22:17:21.926Z,11.10
2018-09-26T22:19:49.205Z,5.33
2018-09-26T22:22:16.530Z,5.50
2018-09-26T22:24:43.815Z,5.87
2018-09-26T22:27:11.147Z,5.50
2018-09-26T22:29:38.441Z,5.20
2018-09-26T22:32:05.858Z,10.60
2018-09-26T22:34:33.152Z,6.10
2018-09-26T22:37:00.453Z,7.03
2018-09-26T22:39:27.750Z,6.30
2018-09-26T22:41:55.028Z,5.13
2018-09-26T22:44:22.309Z,4.43
2018-09-26T22:46:49.605Z,4.90
2018-09-26T22:49:16.897Z,5.73
2018-09-26T22:51:44.197Z,7.60
2018-09-26T22:54:11.500Z,5.73
2018-09-26T22:56:39.977Z,4.47
2018-09-26T22:59:07.279Z,14.77
2018-09-26T23:01:34.602Z,6.10
2018-09-26T23:04:01.875Z,5.60
2018-09-26T23:06:29.144Z,7.37
2018-09-26T23:08:56.422Z,5.87
2018-09-26T23:11:23.685Z,10.77
2018-09-26T23:13:50.973Z,9.93
2018-09-26T23:16:18.349Z,7.53
2018-09-26T23:18:45.626Z,5.03
2018-09-26T23:21:12.908Z,8.40
2018-09-26T23:23:40.219Z,9.90
2018-09-26T23:26:08.313Z,50.23
2018-09-26T23:28:35.573Z,69.90
2018-09-26T23:31:02.910Z,49.90
2018-09-26T23:33:30.169Z,35.57
2018-09-26T23:35:57.490Z,26.90
2018-09-26T23:38:24.758Z,17.57
2018-09-26T23:40:52.037Z,12.47
2018-09-26T23:43:19.297Z,6.73
2018-09-26T23:45:46.577Z,8.23
2018-09-26T23:48:13.857Z,6.90
2018-09-26T23:50:41.141Z,8.00
2018-09-26T23:53:08.417Z,5.50
2018-09-26T23:55:35.726Z,6.63
2018-09-26T23:58:03.025Z,7.30
